createdAt,value
2022-10-26T00:00:34.803Z,100603.31
2022-10-26T00:03:02.824Z,100607.03
2022-10-26T00:05:33.404Z,100604.34
2022-10-26T00:08:01.428Z,100602.44
2022-10-26T00:10:31.560Z,100598.09
2022-10-26T00:12:59.922Z,100601.88
2022-10-26T00:15:27.870Z,100605.38
2022-10-26T00:17:55.911Z,100612.69
2022-10-26T00:20:23.793Z,100614.53
2022-10-26T00:22:56.358Z,100612.88
2022-10-26T00:25:24.391Z,100607.47
2022-10-26T00:27:52.425Z,100610.38
2022-10-26T00:30:20.363Z,100609.78
2022-10-26T00:32:48.321Z,100607.91
2022-10-26T00:35:22.922Z,100613.31
2022-10-26T00:37:56.951Z,100608.94
2022-10-26T00:40:29.355Z,100609.16
2022-10-26T00:42:57.319Z,100610.19
2022-10-26T00:45:26.313Z,100610.19
2022-10-26T00:47:55.043Z,100609.34
2022-10-26T00:50:24.812Z,100608.75
2022-10-26T00:52:52.968Z,100613.13
2022-10-26T00:55:24.032Z,100616.03
2022-10-26T00:57:51.997Z,100619.56
2022-10-26T01:00:19.960Z,100612.50
2022-10-26T01:02:48.392Z,100617.91
2022-10-26T01:05:16.865Z,100612.50
2022-10-26T01:07:45.052Z,100625.19
2022-10-26T01:10:13.983Z,100621.66
2022-10-26T01:12:43.282Z,100618.13
2022-10-26T01:15:11.437Z,100619.97
2022-10-26T01:17:55.159Z,100618.13
2022-10-26T01:20:43.478Z,100617.50
2022-10-26T01:23:14.763Z,100615.63
2022-10-26T01:26:19.836Z,100610.41
2022-10-26T01:28:59.734Z,100608.78
2022-10-26T01:31:29.771Z,100602.53
2022-10-26T01:33:58.425Z,100601.72
2022-10-26T01:36:29.345Z,100598.16
2022-10-26T01:38:59.104Z,100599.22
2022-10-26T01:41:28.786Z,100601.91
2022-10-26T01:43:57.983Z,100607.53
2022-10-26T01:46:26.523Z,100603.78
2022-10-26T01:49:00.203Z,100606.69
2022-10-26T01:51:28.791Z,100612.09
2022-10-26T01:53:56.784Z,100605.06
2022-10-26T01:56:25.147Z,100602.34
2022-10-26T01:59:13.401Z,100604.22
2022-10-26T02:02:19.856Z,100592.56
2022-10-26T02:04:56.459Z,100590.91
2022-10-26T02:07:26.943Z,100598.19
2022-10-26T02:09:58.278Z,100589.28
2022-10-26T02:12:31.747Z,100588.44
2022-10-26T02:15:02.165Z,100589.28
2022-10-26T02:17:30.921Z,100589.28
2022-10-26T02:20:01.595Z,100593.00
2022-10-26T02:22:31.025Z,100594.06
2022-10-26T02:24:58.998Z,100588.66
2022-10-26T02:27:27.996Z,100590.53
2022-10-26T02:29:56.213Z,100595.09
2022-10-26T02:32:24.486Z,100595.09
2022-10-26T02:34:52.546Z,100591.78
2022-10-26T02:37:21.884Z,100591.78
2022-10-26T02:39:50.741Z,100594.69
2022-10-26T02:42:18.682Z,100593.03
2022-10-26T02:44:49.082Z,100597.59
2022-10-26T02:47:17.179Z,100599.44
2022-10-26T02:49:45.170Z,100595.94
2022-10-26T02:52:14.644Z,100601.34
2022-10-26T02:54:49.839Z,100600.50
2022-10-26T02:57:18.353Z,100599.69
2022-10-26T02:59:47.697Z,100604.47
2022-10-26T03:02:15.907Z,100598.00
2022-10-26T03:04:43.888Z,100606.09
2022-10-26T03:07:11.860Z,100603.41
2022-10-26T03:09:39.822Z,100608.00
2022-10-26T03:12:09.213Z,100603.41
2022-10-26T03:14:37.168Z,100612.56
2022-10-26T03:17:05.103Z,100608.81
2022-10-26T03:19:33.066Z,100612.56
2022-10-26T03:22:00.994Z,100614.22
2022-10-26T03:24:28.995Z,100614.22
2022-10-26T03:26:59.608Z,100616.31
2022-10-26T03:29:31.397Z,100616.31
2022-10-26T03:31:59.341Z,100610.91
2022-10-26T03:34:27.288Z,100615.69
2022-10-26T03:36:55.310Z,100613.00
2022-10-26T03:39:23.297Z,100616.75
2022-10-26T03:41:51.272Z,100622.16
2022-10-26T03:44:19.325Z,100615.06
2022-10-26T03:46:48.666Z,100621.53
2022-10-26T03:49:16.607Z,100620.47
2022-10-26T03:51:44.588Z,100618.81
2022-10-26T03:54:12.581Z,100618.00
2022-10-26T03:56:40.536Z,100616.31
2022-10-26T03:59:08.449Z,100619.84
2022-10-26T04:01:36.516Z,100614.44
2022-10-26T04:04:06.138Z,100623.41
2022-10-26T04:06:34.206Z,100619.84
2022-10-26T04:09:02.635Z,100618.81
2022-10-26T04:11:30.513Z,100616.94
2022-10-26T04:13:59.678Z,100614.25
2022-10-26T04:16:31.075Z,100618.81
2022-10-26T04:19:01.361Z,100620.47
2022-10-26T04:21:32.901Z,100621.53
2022-10-26T04:24:00.864Z,100625.03
2022-10-26T04:26:28.812Z,100616.94
2022-10-26T04:28:56.738Z,100622.53
2022-10-26T04:31:24.708Z,100622.53
2022-10-26T04:33:52.673Z,100620.91
2022-10-26T04:36:20.629Z,100621.72
2022-10-26T04:38:51.179Z,100618.19
2022-10-26T04:41:19.116Z,100620.91
2022-10-26T04:43:47.092Z,100622.78
2022-10-26T04:46:16.788Z,100618.19
2022-10-26T04:48:44.890Z,100618.38
2022-10-26T04:51:13.128Z,100623.78
2022-10-26T04:53:41.093Z,100620.25
2022-10-26T04:56:10.391Z,100622.97
2022-10-26T04:58:38.523Z,100627.53
2022-10-26T05:01:06.774Z,100626.72
2022-10-26T05:03:34.780Z,100630.44
2022-10-26T05:06:02.935Z,100626.72
2022-10-26T05:08:30.929Z,100624.22
2022-10-26T05:10:58.901Z,100624.22
2022-10-26T05:13:28.286Z,100632.13
2022-10-26T05:15:56.234Z,100630.44
2022-10-26T05:18:24.191Z,100635.84
2022-10-26T05:20:53.928Z,100634.00
2022-10-26T05:23:22.136Z,100627.75
2022-10-26T05:25:50.241Z,100631.31
2022-10-26T05:28:18.891Z,100646.66
2022-10-26T05:30:48.355Z,100643.94
2022-10-26T05:33:16.272Z,100647.69
2022-10-26T05:35:44.236Z,100645.00
2022-10-26T05:38:14.051Z,100644.16
2022-10-26T05:40:48.182Z,100645.00
2022-10-26T05:43:16.098Z,100646.66
2022-10-26T05:45:44.108Z,100645.00
2022-10-26T05:48:13.829Z,100651.22
2022-10-26T05:50:41.765Z,100655.81
2022-10-26T05:53:09.675Z,100654.75
2022-10-26T05:55:38.420Z,100652.06
2022-10-26T05:58:10.567Z,100658.06
2022-10-26T06:00:38.847Z,100656.19
2022-10-26T06:03:10.156Z,100660.78
2022-10-26T06:05:42.760Z,100662.47
2022-10-26T06:08:11.695Z,100664.94
2022-10-26T06:10:40.552Z,100664.31
2022-10-26T06:13:09.054Z,100653.31
2022-10-26T06:15:39.408Z,100662.84
2022-10-26T06:18:10.860Z,100668.25
2022-10-26T06:20:46.599Z,100666.19
2022-10-26T06:23:24.759Z,100664.94
2022-10-26T06:25:56.076Z,100665.75
2022-10-26T06:28:29.376Z,100673.63
2022-10-26T06:30:57.559Z,100682.78
2022-10-26T06:33:29.455Z,100682.38
2022-10-26T06:36:03.413Z,100678.66
2022-10-26T06:38:31.444Z,100680.31
2022-10-26T06:40:59.659Z,100676.53
2022-10-26T06:43:28.748Z,100689.66
2022-10-26T06:46:01.317Z,100684.84
2022-10-26T06:48:29.747Z,100691.94
2022-10-26T06:50:59.633Z,100695.22
2022-10-26T06:53:30.726Z,100687.75
2022-10-26T06:55:59.180Z,100686.94
2022-10-26T06:58:29.452Z,100694.41
2022-10-26T07:00:57.866Z,100692.34
2022-10-26T07:03:25.931Z,100691.91
2022-10-26T07:05:53.864Z,100690.66
2022-10-26T07:08:23.306Z,100704.56
2022-10-26T07:10:51.342Z,100694.38
2022-10-26T07:13:19.342Z,100703.94
2022-10-26T07:15:48.103Z,100695.59
2022-10-26T07:18:16.124Z,100702.28
2022-10-26T07:20:44.253Z,100708.91
2022-10-26T07:23:12.204Z,100709.53
2022-10-26T07:25:41.768Z,100715.59
2022-10-26T07:28:10.503Z,100702.69
2022-10-26T07:30:39.631Z,100710.56
2022-10-26T07:33:08.740Z,100706.63
2022-10-26T07:35:37.032Z,100707.25
2022-10-26T07:38:05.077Z,100710.56
2022-10-26T07:40:33.175Z,100704.72
2022-10-26T07:43:02.667Z,100698.25
2022-10-26T07:45:30.811Z,100705.53
2022-10-26T07:47:58.853Z,100706.81
2022-10-26T07:50:26.903Z,100706.16
2022-10-26T07:52:54.902Z,100703.88
2022-10-26T07:55:23.011Z,100700.75
2022-10-26T07:57:54.564Z,100701.34
2022-10-26T08:00:24.769Z,100701.78
2022-10-26T08:02:52.762Z,100710.06
2022-10-26T08:05:20.772Z,100702.53
2022-10-26T08:07:49.210Z,100708.59
2022-10-26T08:10:17.645Z,100709.19
2022-10-26T08:12:45.564Z,100706.88
2022-10-26T08:15:13.896Z,100706.69
2022-10-26T08:17:43.223Z,100707.91
2022-10-26T08:20:12.342Z,100707.50
2022-10-26T08:22:40.313Z,100705.81
2022-10-26T08:25:08.973Z,100705.38
2022-10-26T08:27:36.916Z,100707.88
2022-10-26T08:30:06.068Z,100704.75
2022-10-26T08:32:34.000Z,100702.84
2022-10-26T08:35:03.339Z,100706.19
2022-10-26T08:37:31.328Z,100705.78
2022-10-26T08:40:00.731Z,100705.56
2022-10-26T08:42:33.062Z,100709.09
2022-10-26T08:45:03.022Z,100705.34
2022-10-26T08:47:32.082Z,100711.59
2022-10-26T08:50:01.004Z,100710.09
2022-10-26T08:52:31.975Z,100703.63
2022-10-26T08:54:59.943Z,100714.06
2022-10-26T08:57:28.861Z,100703.59
2022-10-26T09:00:01.784Z,100711.09
2022-10-26T09:02:29.846Z,100706.06
2022-10-26T09:04:59.395Z,100707.50
2022-10-26T09:07:49.346Z,100712.47
2022-10-26T09:10:25.767Z,100707.66
2022-10-26T09:12:56.049Z,100716.19
2022-10-26T09:15:27.964Z,100718.44
2022-10-26T09:17:59.650Z,100720.94
2022-10-26T09:20:43.824Z,100719.69
2022-10-26T09:23:19.684Z,100722.19
2022-10-26T09:25:49.230Z,100723.00
2022-10-26T09:28:18.374Z,100722.19
2022-10-26T09:30:46.592Z,100721.75
2022-10-26T09:33:16.846Z,100724.22
2022-10-26T09:35:49.889Z,100722.13
2022-10-26T09:38:22.767Z,100720.03
2022-10-26T09:40:54.265Z,100721.47
2022-10-26T09:43:24.701Z,100725.38
2022-10-26T09:45:53.020Z,100719.53
2022-10-26T09:48:23.264Z,100722.84
2022-10-26T09:50:52.711Z,100715.31
2022-10-26T09:53:22.779Z,100716.16
2022-10-26T09:55:52.455Z,100714.06
2022-10-26T09:58:22.323Z,100712.81
2022-10-26T10:00:52.176Z,100716.13
2022-10-26T10:03:21.098Z,100710.28
2022-10-26T10:05:52.207Z,100715.47
2022-10-26T10:08:23.572Z,100709.81
2022-10-26T10:11:09.914Z,100707.72
2022-10-26T10:13:39.989Z,100714.59
2022-10-26T10:16:09.945Z,100705.41
2022-10-26T10:18:39.175Z,100708.94
2022-10-26T10:21:07.954Z,100707.91
2022-10-26T10:23:38.335Z,100706.84
2022-10-26T10:26:08.109Z,100704.75
2022-10-26T10:28:36.364Z,100696.41
2022-10-26T10:31:05.733Z,100688.03
2022-10-26T10:33:51.577Z,100685.94
2022-10-26T10:36:20.551Z,100684.88
2022-10-26T10:38:50.644Z,100689.00
2022-10-26T10:41:21.169Z,100692.34
2022-10-26T10:43:50.100Z,100695.88
2022-10-26T10:46:22.169Z,100695.66
2022-10-26T10:48:53.070Z,100691.88
2022-10-26T10:51:21.397Z,100685.41
2022-10-26T10:53:51.445Z,100689.78
2022-10-26T10:56:37.006Z,100684.16
2022-10-26T10:59:23.961Z,100680.38
2022-10-26T11:01:56.768Z,100693.72
2022-10-26T11:04:34.172Z,100690.16
2022-10-26T11:07:02.448Z,100679.31
2022-10-26T11:09:32.663Z,100681.19
2022-10-26T11:12:02.887Z,100680.59
2022-10-26T11:14:31.828Z,100680.00
2022-10-26T11:17:03.935Z,100683.75
2022-10-26T11:19:33.999Z,100677.28
2022-10-26T11:22:02.825Z,100672.44
2022-10-26T11:24:33.172Z,100667.88
2022-10-26T11:27:10.319Z,100678.28
2022-10-26T11:29:43.515Z,100671.78
2022-10-26T11:32:16.284Z,100677.81
2022-10-26T11:34:47.448Z,100680.28
2022-10-26T11:37:18.464Z,100674.03
2022-10-26T11:39:59.151Z,100669.44
2022-10-26T11:42:29.375Z,100663.19
2022-10-26T11:44:59.513Z,100673.81
2022-10-26T11:47:34.883Z,100670.88
2022-10-26T11:50:05.263Z,100674.44
2022-10-26T11:52:37.103Z,100670.66
2022-10-26T11:55:07.038Z,100671.50
2022-10-26T11:57:35.268Z,100681.88
2022-10-26T12:00:05.846Z,100671.88
2022-10-26T12:02:35.027Z,100670.00
2022-10-26T12:05:06.514Z,100667.28
2022-10-26T12:07:36.251Z,100668.31
2022-10-26T12:10:08.526Z,100669.75
2022-10-26T12:12:37.609Z,100673.31
2022-10-26T12:15:12.345Z,100674.34
2022-10-26T12:17:41.977Z,100664.31
2022-10-26T12:20:19.866Z,100665.19
2022-10-26T12:22:48.056Z,100666.22
2022-10-26T12:25:23.674Z,100667.03
2022-10-26T12:27:53.822Z,100665.19
2022-10-26T12:30:27.041Z,100657.47
2022-10-26T12:32:55.825Z,100655.00
2022-10-26T12:35:42.134Z,100655.22
2022-10-26T12:38:58.308Z,100658.19
2022-10-26T12:41:28.133Z,100655.31
2022-10-26T12:43:59.536Z,100651.78
2022-10-26T12:46:42.559Z,100652.81
2022-10-26T12:49:49.080Z,100649.50
2022-10-26T12:52:38.326Z,100651.63
2022-10-26T12:55:31.792Z,100652.66
2022-10-26T12:58:16.562Z,100646.63
2022-10-26T13:00:46.960Z,100644.97
2022-10-26T13:03:21.305Z,100651.47
2022-10-26T13:06:11.567Z,100653.31
2022-10-26T13:08:42.997Z,100650.84
2022-10-26T13:11:16.038Z,100649.19
2022-10-26T13:13:45.336Z,100642.09
2022-10-26T13:16:14.408Z,100646.47
2022-10-26T13:18:43.082Z,100659.19
2022-10-26T13:21:13.918Z,100648.59
2022-10-26T13:23:42.418Z,100648.81
2022-10-26T13:26:12.813Z,100643.63
2022-10-26T13:28:47.202Z,100649.63
2022-10-26T13:31:33.363Z,100649.06
2022-10-26T13:34:02.534Z,100647.63
2022-10-26T13:36:32.554Z,100653.03
2022-10-26T13:39:00.640Z,100645.94
2022-10-26T13:41:32.692Z,100651.59
2022-10-26T13:44:03.224Z,100643.47
2022-10-26T13:46:31.336Z,100646.19
2022-10-26T13:49:01.859Z,100658.88
2022-10-26T13:51:38.775Z,100657.22
2022-10-26T13:54:09.204Z,100653.84
2022-10-26T13:56:38.487Z,100649.88
2022-10-26T13:59:09.825Z,100652.78
2022-10-26T14:01:38.098Z,100650.91
2022-10-26T14:04:16.318Z,100658.66
2022-10-26T14:06:44.473Z,100656.63
2022-10-26T14:09:14.516Z,100662.72
2022-10-26T14:11:45.650Z,100659.84
2022-10-26T14:14:16.333Z,100662.59
2022-10-26T14:16:46.834Z,100656.56
2022-10-26T14:19:16.570Z,100658.44
2022-10-26T14:21:49.886Z,100650.31
2022-10-26T14:24:27.483Z,100663.25
2022-10-26T14:27:04.156Z,100660.78
2022-10-26T14:32:23.335Z,100663.75
2022-10-26T14:34:51.230Z,100658.78
2022-10-26T14:37:26.244Z,100668.78
2022-10-26T14:39:54.132Z,100658.38
2022-10-26T14:42:27.942Z,100660.47
2022-10-26T14:44:57.440Z,100654.66
2022-10-26T14:47:25.952Z,100650.06
2022-10-26T14:49:54.471Z,100653.78
2022-10-26T14:52:26.539Z,100648.78
2022-10-26T14:55:00.886Z,100650.50
2022-10-26T14:57:35.608Z,100651.38
2022-10-26T15:00:16.170Z,100648.56
2022-10-26T15:02:44.242Z,100654.88
2022-10-26T15:05:24.342Z,100661.56
2022-10-26T15:07:52.903Z,100658.69
2022-10-26T15:10:48.728Z,100659.97
2022-10-26T15:13:21.801Z,100659.13
2022-10-26T15:15:52.698Z,100663.31
2022-10-26T15:18:23.763Z,100663.91
2022-10-26T15:20:52.443Z,100668.06
2022-10-26T15:23:20.596Z,100664.31
2022-10-26T15:25:53.439Z,100667.88
2022-10-26T15:28:25.875Z,100672.66
2022-10-26T15:31:03.371Z,100670.78
2022-10-26T15:33:31.292Z,100674.53
2022-10-26T15:36:16.201Z,100668.31
2022-10-26T15:38:44.663Z,100672.84
2022-10-26T15:41:16.528Z,100682.25
2022-10-26T15:43:44.586Z,100679.53
2022-10-26T15:46:14.575Z,100684.94
2022-10-26T15:48:42.560Z,100682.44
2022-10-26T15:51:12.544Z,100688.88
2022-10-26T15:53:40.576Z,100683.72
2022-10-26T15:56:14.148Z,100694.53
2022-10-26T15:58:42.843Z,100696.41
2022-10-26T16:01:14.911Z,100698.25
2022-10-26T16:03:42.990Z,100708.28
2022-10-26T16:06:14.421Z,100699.53
2022-10-26T16:08:42.516Z,100703.09
2022-10-26T16:11:11.152Z,100702.03
2022-10-26T16:13:39.195Z,100694.97
2022-10-26T16:16:11.684Z,100705.78
2022-10-26T16:18:41.111Z,100697.69
2022-10-26T16:21:13.911Z,100698.72
2022-10-26T16:23:42.088Z,100702.47
2022-10-26T16:26:10.751Z,100696.22
2022-10-26T16:28:38.968Z,100702.22
2022-10-26T16:31:07.976Z,100709.53
2022-10-26T16:33:36.789Z,100696.22
2022-10-26T16:36:06.693Z,100707.88
2022-10-26T16:38:35.408Z,100713.28
2022-10-26T16:41:03.638Z,100718.69
2022-10-26T16:43:33.295Z,100714.34
2022-10-26T16:46:02.540Z,100721.63
2022-10-26T16:48:31.480Z,100714.34
2022-10-26T16:50:59.463Z,100717.06
2022-10-26T16:53:31.458Z,100715.19
2022-10-26T16:56:03.342Z,100720.78
2022-10-26T16:58:34.385Z,100720.78
2022-10-26T17:01:08.775Z,100722.47
2022-10-26T17:03:37.870Z,100736.00
2022-10-26T17:06:07.462Z,100735.13
2022-10-26T17:08:38.491Z,100737.03
2022-10-26T17:11:08.404Z,100740.78
2022-10-26T17:13:39.094Z,100736.19
2022-10-26T17:16:10.571Z,100741.59
2022-10-26T17:18:41.988Z,100733.69
2022-10-26T17:21:10.160Z,100740.78
2022-10-26T17:23:41.438Z,100749.09
2022-10-26T17:26:10.886Z,100746.19
2022-10-26T17:28:39.622Z,100755.34
2022-10-26T17:31:08.637Z,100755.34
2022-10-26T17:33:37.632Z,100760.75
2022-10-26T17:36:10.063Z,100765.34
2022-10-26T17:38:41.350Z,100767.22
2022-10-26T17:41:10.624Z,100763.69
2022-10-26T17:43:40.202Z,100768.28
2022-10-26T17:46:08.824Z,100773.69
2022-10-26T17:48:37.667Z,100772.84
2022-10-26T17:51:12.915Z,100779.91
2022-10-26T17:53:42.983Z,100782.41
2022-10-26T17:56:29.559Z,100778.66
2022-10-26T17:58:59.272Z,100790.31
2022-10-26T18:01:27.738Z,100791.13
2022-10-26T18:03:56.481Z,100786.56
2022-10-26T18:06:24.468Z,100785.72
2022-10-26T18:08:54.498Z,100786.78
2022-10-26T18:11:26.929Z,100797.59
2022-10-26T18:13:56.027Z,100794.06
2022-10-26T18:16:24.304Z,100793.22
2022-10-26T18:19:01.474Z,100795.34
2022-10-26T18:21:30.346Z,100803.44
2022-10-26T18:24:00.458Z,100797.19
2022-10-26T18:26:29.775Z,100797.19
2022-10-26T18:28:59.108Z,100806.16
2022-10-26T18:31:27.572Z,100801.75
2022-10-26T18:33:57.070Z,100805.53
2022-10-26T18:36:25.105Z,100798.44
2022-10-26T18:38:53.904Z,100797.63
2022-10-26T18:41:23.677Z,100805.72
2022-10-26T18:43:54.316Z,100808.66
2022-10-26T18:46:24.242Z,100805.97
2022-10-26T18:48:54.599Z,100803.25
2022-10-26T18:51:23.599Z,100813.03
2022-10-26T18:53:52.268Z,100813.22
2022-10-26T18:56:21.093Z,100817.81
2022-10-26T18:58:52.465Z,100820.94
2022-10-26T19:01:23.877Z,100823.66
2022-10-26T19:03:54.896Z,100823.66
2022-10-26T19:06:26.029Z,100822.81
2022-10-26T19:08:54.141Z,100820.94
2022-10-26T19:11:23.716Z,100829.88
2022-10-26T19:13:54.054Z,100834.47
2022-10-26T19:19:12.648Z,100840.31
2022-10-26T19:21:41.008Z,100845.72
2022-10-26T19:24:14.247Z,100841.34
2022-10-26T19:26:43.858Z,100838.66
2022-10-26T19:29:16.806Z,100848.63
2022-10-26T19:31:48.136Z,100844.88
2022-10-26T19:34:17.153Z,100845.53
2022-10-26T19:36:46.356Z,100847.38
2022-10-26T19:39:14.971Z,100853.63
2022-10-26T19:41:44.144Z,100858.19
2022-10-26T19:44:14.574Z,100862.16
2022-10-26T19:46:49.894Z,100867.78
2022-10-26T19:49:19.026Z,100867.16
2022-10-26T19:51:48.710Z,100879.63
2022-10-26T19:54:16.655Z,100876.09
2022-10-26T19:56:56.222Z,100877.97
2022-10-26T19:59:29.604Z,100871.94
2022-10-26T20:02:04.718Z,100882.13
2022-10-26T20:04:38.946Z,100881.94
2022-10-26T20:07:11.277Z,100887.34
2022-10-26T20:09:39.296Z,100883.56
2022-10-26T20:12:16.904Z,100872.75
2022-10-26T20:14:56.664Z,100884.44
2022-10-26T20:17:31.511Z,100892.56
2022-10-26T20:20:10.147Z,100894.41
2022-10-26T20:22:41.729Z,100896.28
2022-10-26T20:25:14.677Z,100900.66
2022-10-26T20:27:51.317Z,100910.63
2022-10-26T20:30:26.053Z,100909.81
2022-10-26T20:32:55.402Z,100909.81
2022-10-26T20:35:29.748Z,100902.75
2022-10-26T20:38:01.705Z,100902.75
2022-10-26T20:40:39.665Z,100901.91
2022-10-26T20:43:13.042Z,100897.53
2022-10-26T20:45:46.300Z,100895.66
2022-10-26T20:48:15.994Z,100899.41
2022-10-26T20:50:48.568Z,100897.75
2022-10-26T20:53:20.292Z,100895.06
2022-10-26T20:55:53.735Z,100894.44
2022-10-26T20:58:30.537Z,100891.91
2022-10-26T21:01:03.747Z,100900.88
2022-10-26T21:03:32.912Z,100896.31
2022-10-26T21:06:02.664Z,100895.47
2022-10-26T21:08:31.819Z,100890.06
2022-10-26T21:11:02.044Z,100889.22
2022-10-26T21:13:31.140Z,100892.78
2022-10-26T21:16:04.744Z,100896.50
2022-10-26T21:18:35.077Z,100897.56
2022-10-26T21:21:05.077Z,100908.16
2022-10-26T21:23:38.181Z,100901.06
2022-10-26T21:26:08.413Z,100911.06
2022-10-26T21:28:38.223Z,100908.38
2022-10-26T21:31:13.343Z,100911.91
2022-10-26T21:33:42.459Z,100902.13
2022-10-26T21:36:14.304Z,100900.44
2022-10-26T21:38:44.296Z,100905.66
2022-10-26T21:41:14.999Z,100902.31
2022-10-26T21:43:48.104Z,100893.38
2022-10-26T21:46:20.303Z,100895.28
2022-10-26T21:48:49.587Z,100883.59
2022-10-26T21:51:19.067Z,100892.75
2022-10-26T21:53:48.741Z,100892.75
2022-10-26T21:56:18.538Z,100898.38
2022-10-26T21:58:48.950Z,100901.06
2022-10-26T22:01:26.979Z,100895.66
2022-10-26T22:03:56.567Z,100899.41
2022-10-26T22:06:26.193Z,100901.28
2022-10-26T22:08:55.779Z,100902.31
2022-10-26T22:11:25.405Z,100912.31
2022-10-26T22:13:54.611Z,100909.59
2022-10-26T22:16:27.531Z,100916.06
2022-10-26T22:18:58.220Z,100927.72
2022-10-26T22:21:28.182Z,100931.47
2022-10-26T22:23:56.149Z,100925.19
2022-10-26T22:26:27.761Z,100924.19
2022-10-26T22:28:57.471Z,100925.19
2022-10-26T22:31:28.961Z,100924.38
2022-10-26T22:34:02.024Z,100928.94
2022-10-26T22:36:32.975Z,100923.53
2022-10-26T22:39:01.981Z,100935.41
2022-10-26T22:41:35.721Z,100932.72
2022-10-26T22:44:06.814Z,100938.94
2022-10-26T22:46:37.689Z,100940.19
2022-10-26T22:49:07.309Z,100953.50
2022-10-26T22:51:38.683Z,100948.31
2022-10-26T22:54:07.939Z,100949.34
2022-10-26T22:56:37.324Z,100942.25
2022-10-26T22:59:06.383Z,100936.03
2022-10-26T23:01:42.096Z,100929.78
2022-10-26T23:04:11.791Z,100931.88
2022-10-26T23:06:40.978Z,100936.44
2022-10-26T23:09:10.295Z,100936.44
2022-10-26T23:11:38.313Z,100929.34
2022-10-26T23:14:06.359Z,100933.94
2022-10-26T23:16:34.856Z,100936.63
2022-10-26T23:19:04.273Z,100933.94
2022-10-26T23:21:32.258Z,100938.50
2022-10-26T23:24:00.245Z,100937.69
2022-10-26T23:26:28.194Z,100934.16
2022-10-26T23:28:56.197Z,100934.16
2022-10-26T23:31:25.933Z,100935.19
2022-10-26T23:33:54.345Z,100934.34
2022-10-26T23:36:23.952Z,100921.88
2022-10-26T23:38:51.931Z,100926.44
2022-10-26T23:41:19.846Z,100923.72
2022-10-26T23:43:47.985Z,100922.06
2022-10-26T23:46:16.103Z,100926.81
2022-10-26T23:48:44.157Z,100929.53
2022-10-26T23:51:12.064Z,100935.97
2022-10-26T23:53:41.394Z,100924.53
2022-10-26T23:56:09.346Z,100928.06
2022-10-26T23:58:37.334Z,100924.75
